Time;durP1;ratioP1;P1;durP2;ratioP2;P2;SDS_P1;SDS_P2;PMS_P1;PMS_P2;Temp;Humidity;BMP_temperature;BMP_pressure;BME280_temperature;BME280_humidity;BME280_pressure;Samples;Min_cycle;Max_cycle;Signal;HPM_P1;HPM_P2
2023/06/12 00:03:03;;;;;;;10.25;5.00;;;;;;;21.35;38.16;99598.47;10360494;28;20241;-65
2023/06/12 00:08:08;;;;;;;7.88;4.68;;;;;;;21.80;37.42;99610.78;10352557;28;20232;-67
2023/06/12 00:13:11;;;;;;;7.65;5.00;;;;;;;21.73;38.42;99591.94;10372992;28;20680;-65
2023/06/12 00:18:14;;;;;;;5.43;4.60;;;;;;;21.92;37.84;99591.50;10360614;28;20352;-68
2023/06/12 00:23:16;;;;;;;5.95;4.70;;;;;;;22.33;37.12;99618.94;10361504;28;20292;-66
2023/06/12 00:28:18;;;;;;;6.25;4.75;;;;;;;20.60;37.64;99620.09;10361424;28;20417;-68
2023/06/12 00:33:19;;;;;;;5.53;4.43;;;;;;;21.55;37.50;99622.31;10370593;28;20215;-68
2023/06/12 00:38:21;;;;;;;7.15;5.10;;;;;;;19.99;39.21;99612.81;10362232;28;20344;-68
2023/06/12 00:43:23;;;;;;;6.22;4.43;;;;;;;20.24;39.08;99601.47;10365439;28;20213;-68
2023/06/12 00:48:25;;;;;;;5.40;4.90;;;;;;;21.10;38.72;99604.53;10362035;28;20335;-68
2023/06/12 00:53:26;;;;;;;6.57;4.47;;;;;;;22.73;36.36;99590.16;10368708;28;20299;-68
2023/06/12 00:58:29;;;;;;;6.47;4.72;;;;;;;21.30;38.30;99625.66;10364197;28;20237;-68
2023/06/12 01:03:32;;;;;;;6.20;5.10;;;;;;;21.08;37.50;99637.44;10354467;28;20470;-68
2023/06/12 01:09:00;;;;;;;7.15;5.00;;;;;;;20.99;38.07;99642.53;10367760;28;20234;-65
2023/06/12 01:14:02;;;;;;;6.65;5.00;;;;;;;20.44;38.27;99636.19;10357302;28;20295;-67
2023/06/12 01:19:05;;;;;;;7.25;4.82;;;;;;;20.70;38.22;99631.06;10357426;28;20213;-66
2023/06/12 01:24:28;;;;;;;7.10;5.32;;;;;;;19.34;40.17;99619.72;10366634;28;20311;-68
2023/06/12 01:29:52;;;;;;;7.20;4.93;;;;;;;19.16;40.49;99618.88;10357777;28;20308;-69
2023/06/12 01:35:03;;;;;;;6.03;5.40;;;;;;;18.56;41.62;99598.56;10361417;28;20233;-68
2023/06/12 01:40:07;;;;;;;6.03;4.70;;;;;;;21.16;37.92;99589.91;10357714;28;20216;-67
2023/06/12 01:45:10;;;;;;;5.57;4.97;;;;;;;18.94;40.78;99609.81;10378572;28;20734;-66
2023/06/12 01:50:13;;;;;;;7.80;5.15;;;;;;;18.56;40.94;99590.44;10357333;28;20217;-67
2023/06/12 01:55:19;;;;;;;6.37;5.23;;;;;;;18.65;41.00;99582.72;10363245;28;20221;-68
2023/06/12 02:00:21;;;;;;;6.67;5.70;;;;;;;19.38;39.91;99589.13;10357554;28;20220;-69
2023/06/12 02:05:22;;;;;;;5.75;5.20;;;;;;;18.50;41.42;99594.09;10359670;28;20236;-68
2023/06/12 02:10:24;;;;;;;7.93;5.10;;;;;;;18.56;41.86;99590.44;10361131;28;20229;-68
2023/06/12 02:15:26;;;;;;;5.93;5.13;;;;;;;18.70;41.60;99576.59;10359332;28;20221;-68
2023/06/12 02:20:27;;;;;;;6.07;5.20;;;;;;;18.35;41.87;99582.97;10354843;28;20505;-67
2023/06/12 02:25:29;;;;;;;5.53;4.80;;;;;;;18.58;41.35;99601.84;10363813;28;20229;-68
2023/06/12 02:30:33;;;;;;;7.13;5.20;;;;;;;17.82;42.01;99604.59;10360851;28;20710;-67
2023/06/12 02:35:36;;;;;;;6.00;5.40;;;;;;;17.78;42.65;99608.84;10359949;28;20224;-68
2023/06/12 02:40:38;;;;;;;5.93;5.33;;;;;;;16.06;45.05;99563.34;10354441;28;20217;-68
2023/06/12 02:45:39;;;;;;;6.50;5.30;;;;;;;16.85;44.15;99594.94;10363046;28;20274;-68
2023/06/12 02:50:41;;;;;;;6.23;5.43;;;;;;;17.46;43.30;99609.19;10355162;28;20213;-68
2023/06/12 02:55:44;;;;;;;6.73;5.80;;;;;;;17.44;43.52;99596.94;10364383;28;20257;-67
2023/06/12 03:00:46;;;;;;;6.47;5.77;;;;;;;16.94;43.74;99614.38;10355009;28;20312;-68
2023/06/12 03:05:49;;;;;;;6.30;5.70;;;;;;;16.88;44.58;99615.28;10360858;28;20240;-68
2023/06/12 03:10:50;;;;;;;6.20;5.57;;;;;;;16.60;44.46;99625.63;10361361;28;20209;-68
2023/06/12 03:15:52;;;;;;;6.10;5.50;;;;;;;16.82;44.07;99630.53;10358543;28;20218;-68
2023/06/12 03:20:54;;;;;;;6.70;6.00;;;;;;;16.97;44.06;99641.78;10361765;28;20216;-66
2023/06/12 03:25:55;;;;;;;6.40;5.10;;;;;;;17.34;43.01;99671.38;10362042;28;20241;-68
2023/06/12 03:30:57;;;;;;;7.90;5.40;;;;;;;18.34;41.75;99644.44;10361015;28;20267;-68
2023/06/12 03:35:59;;;;;;;5.53;4.90;;;;;;;17.24;43.39;99671.13;10361793;28;20764;-68
2023/06/12 03:41:00;;;;;;;6.90;5.23;;;;;;;17.08;43.53;99688.00;10360808;28;20213;-68
2023/06/12 03:46:02;;;;;;;5.43;4.93;;;;;;;17.36;43.69;99682.78;10365859;28;20228;-67
2023/06/12 03:51:04;;;;;;;5.00;4.50;;;;;;;17.99;42.67;99661.53;10361813;28;20800;-66
2023/06/12 03:56:07;;;;;;;6.37;4.90;;;;;;;17.43;43.07;99692.69;10370875;28;20217;-66
2023/06/12 04:01:08;;;;;;;6.27;5.63;;;;;;;16.60;44.34;99712.06;10360610;28;20213;-66
2023/06/12 04:06:11;;;;;;;6.77;4.93;;;;;;;17.17;43.48;99724.44;10351362;28;20610;-67
2023/06/12 04:11:14;;;;;;;5.70;4.97;;;;;;;17.66;43.19;99717.09;10366440;28;20217;-67
2023/06/12 04:16:16;;;;;;;5.93;5.10;;;;;;;16.91;44.23;99728.31;10358939;28;20724;-66
2023/06/12 04:21:20;;;;;;;6.30;5.33;;;;;;;17.94;42.78;99726.41;10352831;28;20217;-68
2023/06/12 04:26:24;;;;;;;7.03;5.50;;;;;;;17.74;43.28;99740.25;10356566;28;20280;-66
2023/06/12 04:31:29;;;;;;;6.53;5.10;;;;;;;18.38;42.64;99710.63;10354770;28;20272;-68
2023/06/12 04:36:33;;;;;;;11.30;5.13;;;;;;;17.94;42.81;99748.06;10362114;28;20272;-68
2023/06/12 04:41:36;;;;;;;5.27;4.73;;;;;;;18.22;42.74;99747.34;10350354;28;20214;-68
2023/06/12 04:46:37;;;;;;;6.97;5.27;;;;;;;18.57;42.50;99726.72;10357022;28;20237;-69
2023/06/12 04:51:39;;;;;;;7.33;5.50;;;;;;;18.09;43.10;99761.94;10357282;28;20209;-67
2023/06/12 04:56:44;;;;;;;5.30;4.80;;;;;;;18.57;42.33;99749.22;10366280;28;20225;-67
2023/06/12 05:01:47;;;;;;;6.37;5.47;;;;;;;19.01;41.97;99722.50;10349434;28;20982;-67
2023/06/12 05:06:49;;;;;;;4.87;4.43;;;;;;;19.82;40.98;99701.63;10342481;28;20336;-65
2023/06/12 05:11:51;;;;;;;5.00;4.50;;;;;;;19.48;41.52;99745.00;10347738;28;20593;-66
2023/06/12 05:16:54;;;;;;;5.63;4.67;;;;;;;20.16;40.40;99736.88;10338347;28;20752;-66
2023/06/12 05:21:56;;;;;;;5.67;5.07;;;;;;;20.18;40.80;99722.00;10349884;28;20220;-67
2023/06/12 05:26:58;;;;;;;7.13;4.85;;;;;;;19.47;41.73;99774.03;10342290;28;20279;-67
2023/06/12 05:32:01;;;;;;;6.00;4.60;;;;;;;19.95;41.24;99736.56;10351103;28;20212;-68
2023/06/12 05:37:03;;;;;;;5.35;4.57;;;;;;;19.61;42.07;99776.47;10347258;28;21045;-66
2023/06/12 05:42:07;;;;;;;7.13;5.07;;;;;;;22.06;38.96;99665.41;10347933;28;20757;-67
2023/06/12 05:47:08;;;;;;;5.55;4.85;;;;;;;20.95;40.46;99714.84;10354530;28;20268;-65
2023/06/12 05:52:12;;;;;;;5.10;4.60;;;;;;;20.88;40.25;99755.00;10349747;28;20680;-66
2023/06/12 05:57:14;;;;;;;5.68;4.82;;;;;;;22.43;38.80;99678.94;10354685;28;20744;-66
2023/06/12 06:02:16;;;;;;;5.65;4.57;;;;;;;20.41;41.19;99785.34;10351383;28;20263;-66
2023/06/12 06:07:17;;;;;;;5.38;4.88;;;;;;;20.84;40.80;99753.88;10340749;28;20229;-67
2023/06/12 06:12:19;;;;;;;5.05;4.55;;;;;;;20.43;41.06;99785.91;10350821;28;20223;-67
2023/06/12 06:17:21;;;;;;;5.25;4.75;;;;;;;21.59;40.08;99694.22;10349800;28;20233;-67
2023/06/12 06:22:24;;;;;;;5.45;4.53;;;;;;;21.13;40.25;99773.50;10346879;28;20245;-67
2023/06/12 06:27:25;;;;;;;5.63;4.63;;;;;;;22.07;39.38;99735.19;10342224;28;20237;-66
2023/06/12 06:32:27;;;;;;;5.20;4.50;;;;;;;21.97;40.26;99755.81;10345368;28;20272;-65
2023/06/12 06:37:29;;;;;;;7.57;4.60;;;;;;;23.23;38.33;99686.81;10341733;28;20218;-67
2023/06/12 06:42:31;;;;;;;6.40;4.32;;;;;;;23.30;38.40;99721.22;10349254;28;20405;-67
2023/06/12 06:47:36;;;;;;;4.95;4.45;;;;;;;23.12;38.75;99712.47;10352967;28;20568;-67
2023/06/12 06:52:38;;;;;;;5.32;4.82;;;;;;;22.99;37.86;99723.88;10346336;28;20417;-67
2023/06/12 06:57:40;;;;;;;5.30;4.68;;;;;;;22.43;38.56;99735.38;10356446;28;20226;-67
2023/06/12 07:02:43;;;;;;;8.02;4.78;;;;;;;24.33;37.14;99651.72;10345446;28;20244;-67
2023/06/12 07:07:47;;;;;;;7.22;4.38;;;;;;;21.78;39.17;99781.78;10350206;28;20303;-67
2023/06/12 07:13:02;;;;;;;6.78;4.90;;;;;;;23.54;37.90;99678.63;10353619;28;20650;-66
2023/06/12 07:18:05;;;;;;;5.28;4.10;;;;;;;21.13;40.31;99791.72;10355249;28;20263;-66
2023/06/12 07:23:07;;;;;;;5.65;4.65;;;;;;;22.07;38.81;99756.97;10362913;28;20601;-67
2023/06/12 07:28:08;;;;;;;5.20;4.70;;;;;;;22.83;38.06;99732.00;10356856;28;20309;-67
2023/06/12 07:33:10;;;;;;;6.38;4.60;;;;;;;23.43;37.81;99704.28;10358056;28;20323;-68
2023/06/12 07:38:13;;;;;;;5.28;4.78;;;;;;;23.97;37.12;99660.03;10354104;28;20721;-66
2023/06/12 07:43:14;;;;;;;5.32;4.40;;;;;;;24.20;37.11;99670.63;10360183;28;20213;-66
2023/06/12 07:48:16;;;;;;;5.85;4.10;;;;;;;24.81;36.17;99632.03;10365112;28;20244;-67
2023/06/12 07:53:18;;;;;;;7.47;4.25;;;;;;;24.85;36.70;99624.09;10363087;28;20240;-67
2023/06/12 07:58:38;;;;;;;6.15;4.57;;;;;;;24.32;37.01;99671.13;10360434;28;20883;-68
2023/06/12 08:03:39;;;;;;;7.43;4.70;;;;;;;24.14;36.70;99661.59;10364484;28;20323;-68
2023/06/12 08:08:46;;;;;;;5.47;4.18;;;;;;;25.02;36.38;99646.41;10349249;28;20241;-68
2023/06/12 08:13:49;;;;;;;4.93;4.43;;;;;;;24.58;36.63;99676.47;10360618;28;20646;-68
2023/06/12 08:18:51;;;;;;;4.78;3.97;;;;;;;25.02;35.69;99654.63;10362488;28;20208;-69
2023/06/12 08:23:53;;;;;;;6.82;4.40;;;;;;;25.62;35.60;99616.03;10367547;28;20696;-68
2023/06/12 08:28:56;;;;;;;6.10;4.50;;;;;;;24.03;37.10;99688.13;10351767;28;20241;-67
2023/06/12 08:33:59;;;;;;;6.15;4.40;;;;;;;25.26;35.73;99610.13;10355186;28;20205;-68
2023/06/12 08:39:01;;;;;;;4.68;4.28;;;;;;;25.98;35.22;99596.50;10353216;28;20208;-69
2023/06/12 08:44:03;;;;;;;7.47;4.35;;;;;;;25.42;35.88;99629.94;10361778;28;20231;-68
2023/06/12 08:49:05;;;;;;;5.15;4.65;;;;;;;25.48;35.15;99626.88;10360992;28;20225;-67
2023/06/12 08:54:07;;;;;;;6.85;4.30;;;;;;;26.31;34.58;99574.72;10355485;28;20229;-68
2023/06/12 08:59:09;;;;;;;5.38;4.80;;;;;;;26.10;34.92;99593.34;10359634;28;20630;-67
2023/06/12 09:04:26;;;;;;;5.22;4.55;;;;;;;26.98;33.72;99565.50;10354575;28;20320;-68
2023/06/12 09:09:41;;;;;;;4.25;3.85;;;;;;;27.06;33.76;99589.50;10359885;28;20238;-67
2023/06/12 09:14:45;;;;;;;4.50;4.07;;;;;;;25.45;34.88;99651.28;10352565;28;20349;-68
2023/06/12 09:19:48;;;;;;;4.57;4.18;;;;;;;26.39;33.66;99595.19;10355233;28;20206;-68
2023/06/12 09:24:51;;;;;;;8.43;4.40;;;;;;;27.45;33.33;99562.78;10363602;28;20233;-68
2023/06/12 09:29:59;;;;;;;5.05;4.50;;;;;;;27.07;33.42;99577.41;10354860;28;20214;-69
2023/06/12 09:35:01;;;;;;;6.40;4.30;;;;;;;26.35;33.46;99621.56;10360657;28;20666;-69
2023/06/12 09:40:10;;;;;;;4.97;3.60;;;;;;;26.11;33.03;99625.13;10353872;28;20270;-67
2023/06/12 09:45:20;;;;;;;5.88;3.80;;;;;;;26.24;31.50;99644.75;10352897;28;20235;-68
2023/06/12 09:50:23;;;;;;;6.28;4.07;;;;;;;25.55;30.41;99669.56;10361349;28;20224;-67
2023/06/12 09:55:27;;;;;;;4.40;3.97;;;;;;;27.10;29.49;99606.19;10356257;28;20324;-68
2023/06/12 10:00:30;;;;;;;4.25;3.65;;;;;;;27.21;29.90;99593.09;10358240;28;20293;-68
2023/06/12 10:05:37;;;;;;;8.18;3.90;;;;;;;25.97;30.61;99662.59;10357546;28;20332;-68
2023/06/12 10:10:40;;;;;;;4.57;4.13;;;;;;;27.40;30.63;99588.41;10359173;28;20948;-68
2023/06/12 10:15:42;;;;;;;6.68;4.00;;;;;;;26.88;30.25;99613.13;10357245;28;20230;-67
2023/06/12 10:20:46;;;;;;;5.80;4.20;;;;;;;27.29;30.24;99595.19;10367215;28;20317;-67
2023/06/12 10:25:49;;;;;;;7.10;4.55;;;;;;;26.66;30.73;99629.38;10370902;28;20719;-68
2023/06/12 10:31:16;;;;;;;6.53;4.38;;;;;;;27.89;29.54;99586.09;10357517;28;20213;-68
2023/06/12 10:36:18;;;;;;;6.13;4.22;;;;;;;27.01;30.74;99605.25;10358604;28;20969;-68
2023/06/12 10:41:32;;;;;;;6.93;4.40;;;;;;;27.72;30.29;99578.47;10363683;28;20209;-68
2023/06/12 10:46:44;;;;;;;5.53;4.20;;;;;;;26.89;31.28;99609.28;10357442;28;20323;-67
2023/06/12 10:51:48;;;;;;;5.28;4.05;;;;;;;26.80;31.18;99597.34;10356221;28;20209;-67
2023/06/12 10:57:00;;;;;;;5.53;4.60;;;;;;;28.78;30.05;99515.91;10364995;28;20723;-68
2023/06/12 11:06:25;;;;;;;5.25;4.50;;;;;;;25.96;32.50;99590.50;10496224;27;2051584;-66
2023/06/12 11:11:26;;;;;;;6.95;4.30;;;;;;;26.89;32.04;99556.28;10534259;28;20813;-67
2023/06/12 11:16:29;;;;;;;6.13;4.63;;;;;;;28.22;31.18;99523.56;10541356;28;20295;-67
2023/06/12 11:21:32;;;;;;;6.57;5.13;;;;;;;27.13;32.99;99537.75;10537416;28;20485;-67
2023/06/12 11:26:35;;;;;;;6.47;4.72;;;;;;;26.25;33.16;99594.25;10540974;28;20814;-66
2023/06/12 11:31:37;;;;;;;8.27;5.15;;;;;;;27.00;32.28;99557.75;10531521;28;20211;-67
2023/06/12 11:36:39;;;;;;;5.28;4.45;;;;;;;28.10;31.26;99527.94;10534203;28;20257;-66
2023/06/12 11:41:41;;;;;;;6.13;4.28;;;;;;;27.80;31.98;99547.53;10535482;28;20207;-67
2023/06/12 11:46:44;;;;;;;6.22;4.35;;;;;;;28.26;30.41;99523.75;10533282;28;20241;-66
2023/06/12 11:51:47;;;;;;;4.93;4.45;;;;;;;27.36;31.21;99581.06;10527808;28;20203;-66
2023/06/12 11:56:49;;;;;;;4.72;4.25;;;;;;;27.36;31.92;99537.91;10524197;28;20655;-67
2023/06/12 12:01:58;;;;;;;4.95;4.38;;;;;;;25.99;31.80;99584.41;10528933;28;20386;-67
2023/06/12 12:07:00;;;;;;;6.80;4.40;;;;;;;26.28;31.36;99574.50;10530424;28;20253;-67
2023/06/12 12:12:08;;;;;;;5.75;4.28;;;;;;;27.42;31.56;99546.88;10531645;28;20583;-67
2023/06/12 12:17:09;;;;;;;5.68;4.50;;;;;;;27.94;30.92;99509.03;10511585;28;20317;-67
2023/06/12 12:22:11;;;;;;;6.45;4.10;;;;;;;27.80;29.84;99535.69;10498545;28;20229;-66
2023/06/12 12:27:13;;;;;;;4.30;3.90;;;;;;;28.52;29.59;99529.44;10504068;28;20269;-66
2023/06/12 12:32:15;;;;;;;5.82;4.40;;;;;;;27.60;30.20;99542.41;10493621;28;20199;-67
2023/06/12 12:37:16;;;;;;;6.45;4.75;;;;;;;27.15;30.65;99534.72;10496084;28;20268;-67
2023/06/12 12:42:18;;;;;;;4.50;4.07;;;;;;;27.68;30.40;99512.28;10507801;28;20249;-67
2023/06/12 12:47:20;;;;;;;8.25;4.20;;;;;;;27.61;29.47;99531.09;10505324;28;20729;-66
2023/06/12 12:52:22;;;;;;;10.63;4.85;;;;;;;26.91;30.65;99552.16;10510028;28;20202;-67
2023/06/12 12:57:43;;;;;;;5.47;4.47;;;;;;;28.17;29.82;99489.81;10504990;28;20349;-67
2023/06/12 13:02:45;;;;;;;4.65;4.25;;;;;;;28.55;29.10;99478.47;10506113;28;20374;-67
2023/06/12 13:07:48;;;;;;;5.13;4.10;;;;;;;28.32;30.02;99480.41;10484906;28;20238;-67
2023/06/12 13:12:52;;;;;;;5.35;4.20;;;;;;;27.38;29.90;99519.22;10495801;28;20206;-66
2023/06/12 13:17:54;;;;;;;5.88;4.32;;;;;;;26.73;30.02;99531.03;10500684;28;20316;-66
2023/06/12 13:22:55;;;;;;;4.35;3.88;;;;;;;27.79;29.76;99509.34;10504798;28;20592;-67
2023/06/12 13:27:57;;;;;;;8.50;4.20;;;;;;;28.74;29.00;99451.56;10502876;28;20314;-67
2023/06/12 13:32:59;;;;;;;4.82;4.00;;;;;;;28.85;28.50;99485.16;10500781;28;20264;-67
2023/06/12 13:38:00;;;;;;;4.43;4.03;;;;;;;27.64;29.23;99504.97;10498611;28;20236;-67
2023/06/12 13:43:02;;;;;;;7.93;4.22;;;;;;;28.22;29.52;99476.78;10495739;28;20219;-67
2023/06/12 13:48:04;;;;;;;6.15;4.40;;;;;;;28.89;28.23;99463.31;10497748;28;20659;-67
2023/06/12 13:53:06;;;;;;;4.20;3.72;;;;;;;28.01;29.01;99514.09;10496029;28;20253;-67
2023/06/12 13:58:08;;;;;;;4.97;4.35;;;;;;;29.36;28.17;99471.97;10502078;28;20231;-67
2023/06/12 14:03:11;;;;;;;4.10;3.70;;;;;;;29.02;28.87;99470.69;10500720;28;20235;-66
2023/06/12 14:08:13;;;;;;;5.55;3.95;;;;;;;28.10;28.92;99517.72;10494972;28;20844;-67
2023/06/12 14:13:16;;;;;;;5.70;3.95;;;;;;;28.29;28.38;99498.38;10499973;28;20224;-67
2023/06/12 14:18:18;;;;;;;5.53;3.90;;;;;;;29.02;28.72;99458.84;10509564;28;20321;-67
2023/06/12 14:23:19;;;;;;;6.72;4.15;;;;;;;28.30;28.44;99477.97;10511276;28;20227;-67
2023/06/12 14:28:21;;;;;;;5.93;4.18;;;;;;;29.70;28.03;99451.16;10479885;28;20235;-67
2023/06/12 14:33:23;;;;;;;5.45;4.35;;;;;;;27.38;28.68;99512.88;10510564;28;20764;-67
2023/06/12 14:38:25;;;;;;;4.45;4.05;;;;;;;29.02;28.71;99464.38;10514595;28;20234;-67
2023/06/12 14:43:26;;;;;;;6.07;4.03;;;;;;;28.48;28.97;99484.41;10497826;28;20598;-67
2023/06/12 14:48:28;;;;;;;4.70;4.30;;;;;;;28.30;28.47;99464.22;10503257;28;20218;-67
2023/06/12 14:53:31;;;;;;;6.25;4.13;;;;;;;30.33;27.52;99409.47;10495139;28;20636;-67
2023/06/12 14:58:34;;;;;;;5.05;4.03;;;;;;;28.08;27.98;99491.69;10489744;28;20304;-66
2023/06/12 15:05:22;;;;;;;5.18;4.20;;;;;;;28.44;28.22;99425.63;10434524;28;20817;-67
2023/06/12 15:10:25;;;;;;;5.10;4.25;;;;;;;27.34;29.22;99456.94;10402420;28;20776;-66
2023/06/12 15:15:27;;;;;;;4.97;4.05;;;;;;;28.01;28.67;99437.09;10405323;28;20439;-66
2023/06/12 15:20:30;;;;;;;4.90;4.15;;;;;;;29.48;28.32;99395.00;10396313;28;20287;-66
2023/06/12 15:25:31;;;;;;;4.43;3.83;;;;;;;28.08;29.17;99414.69;10401578;28;20229;-66
2023/06/12 15:30:33;;;;;;;5.95;4.07;;;;;;;28.66;28.65;99408.31;10397998;28;20204;-67
2023/06/12 15:35:35;;;;;;;5.50;4.18;;;;;;;27.77;28.86;99435.44;10404431;28;20243;-67
2023/06/12 15:40:36;;;;;;;6.00;4.43;;;;;;;29.56;27.96;99385.13;10393293;28;20680;-66
2023/06/12 15:45:38;;;;;;;4.95;4.00;;;;;;;29.97;27.80;99388.56;10406521;28;20659;-66
2023/06/12 15:50:40;;;;;;;7.32;4.28;;;;;;;28.13;28.42;99425.56;10395046;28;20311;-67
2023/06/12 15:55:42;;;;;;;4.40;4.00;;;;;;;28.19;27.90;99421.59;10406237;28;20327;-66
2023/06/12 16:00:43;;;;;;;5.10;4.00;;;;;;;28.48;28.38;99410.13;10392972;28;20245;-67
2023/06/12 16:05:45;;;;;;;5.68;4.28;;;;;;;28.08;28.61;99420.19;10398658;28;20339;-66
2023/06/12 16:10:47;;;;;;;4.57;4.00;;;;;;;26.66;28.95;99451.03;10400997;28;20762;-67
2023/06/12 16:15:49;;;;;;;7.68;4.50;;;;;;;28.04;27.88;99434.53;10381433;28;20730;-67
2023/06/12 16:20:50;;;;;;;4.43;3.70;;;;;;;27.99;27.80;99412.66;10369261;28;20243;-66
2023/06/12 16:25:52;;;;;;;4.70;4.22;;;;;;;28.46;27.76;99400.56;10366738;28;20271;-66
2023/06/12 16:30:54;;;;;;;5.53;3.80;;;;;;;29.33;27.52;99382.47;10379891;28;20205;-67
2023/06/12 16:35:55;;;;;;;7.28;3.78;;;;;;;28.87;27.52;99421.53;10372322;28;20233;-67
2023/06/12 16:40:57;;;;;;;5.68;4.07;;;;;;;28.43;27.79;99435.03;10376801;28;20232;-66
2023/06/12 16:45:59;;;;;;;4.38;3.83;;;;;;;28.72;27.22;99420.00;10379987;28;20333;-66
2023/06/12 16:51:01;;;;;;;4.90;4.22;;;;;;;28.26;27.69;99404.63;10376448;28;20762;-66
2023/06/12 16:56:03;;;;;;;6.75;4.00;;;;;;;28.68;27.22;99408.81;10377717;28;20708;-67
2023/06/12 17:01:05;;;;;;;6.20;3.83;;;;;;;28.44;27.33;99411.06;10375129;28;20303;-66
2023/06/12 17:06:11;;;;;;;5.75;3.65;;;;;;;28.79;26.97;99407.38;10374401;28;20468;-66
2023/06/12 17:11:13;;;;;;;5.03;3.47;;;;;;;29.07;26.83;99401.69;10371746;28;20646;-66
2023/06/12 17:16:14;;;;;;;6.93;3.97;;;;;;;27.21;28.02;99436.56;10378369;28;20818;-65
2023/06/12 17:21:16;;;;;;;5.10;4.15;;;;;;;27.75;27.65;99415.72;10374609;28;20221;-66
2023/06/12 17:26:18;;;;;;;5.18;4.20;;;;;;;27.19;27.78;99439.59;10366675;28;20315;-67
2023/06/12 17:31:20;;;;;;;6.90;3.80;;;;;;;28.32;27.63;99406.13;10372137;28;20210;-66
2023/06/12 17:36:22;;;;;;;4.70;4.05;;;;;;;27.01;28.02;99427.63;10374643;28;20259;-67
2023/06/12 17:41:24;;;;;;;6.53;4.50;;;;;;;26.23;28.50;99434.72;10378378;28;20319;-67
2023/06/12 17:46:25;;;;;;;6.22;3.90;;;;;;;26.06;28.43;99429.75;10369179;28;20225;-66
2023/06/12 17:51:27;;;;;;;5.53;4.63;;;;;;;27.39;28.00;99410.13;10372561;28;20849;-66
2023/06/12 17:56:29;;;;;;;4.53;4.13;;;;;;;28.03;27.16;99413.66;10368593;28;20750;-65
2023/06/12 18:01:31;;;;;;;6.28;4.20;;;;;;;28.33;27.57;99394.81;10361941;28;20245;-67
2023/06/12 18:06:33;;;;;;;6.30;4.05;;;;;;;26.92;28.38;99427.53;10369915;28;20755;-67
2023/06/12 18:11:34;;;;;;;6.75;3.95;;;;;;;26.90;28.45;99415.19;10372915;28;20209;-66
2023/06/12 18:16:36;;;;;;;8.20;4.15;;;;;;;27.18;28.20;99421.53;10362948;28;20740;-66
2023/06/12 18:21:39;;;;;;;5.43;4.05;;;;;;;28.38;27.60;99388.38;10366437;28;20747;-67
2023/06/12 18:26:40;;;;;;;6.38;4.15;;;;;;;25.93;29.24;99421.16;10366992;28;20229;-67
2023/06/12 18:31:42;;;;;;;10.18;4.35;;;;;;;26.72;28.86;99412.25;10377679;28;20654;-67
2023/06/12 18:36:44;;;;;;;7.65;4.32;;;;;;;26.33;29.22;99418.09;10368788;28;20255;-66
2023/06/12 18:41:46;;;;;;;6.57;4.15;;;;;;;26.53;28.98;99427.91;10380521;28;20677;-66
2023/06/12 18:46:47;;;;;;;5.85;4.05;;;;;;;26.12;29.41;99429.38;10368897;28;20226;-66
2023/06/12 18:51:49;;;;;;;5.30;4.30;;;;;;;27.92;28.21;99392.22;10366730;28;20688;-67
2023/06/12 18:56:51;;;;;;;5.10;3.78;;;;;;;27.18;28.98;99410.53;10373835;28;20228;-66
2023/06/12 19:01:53;;;;;;;5.70;4.05;;;;;;;26.39;29.51;99450.63;10366067;28;20700;-67
2023/06/12 19:06:54;;;;;;;5.57;3.80;;;;;;;26.92;29.41;99435.75;10368033;28;20233;-66
2023/06/12 19:11:56;;;;;;;6.28;3.78;;;;;;;26.95;29.38;99445.31;10358435;28;20252;-67
2023/06/12 19:16:58;;;;;;;8.70;4.47;;;;;;;27.31;28.98;99433.63;10368268;28;20412;-67
2023/06/12 19:22:00;;;;;;;5.38;4.40;;;;;;;27.11;29.28;99426.63;10363773;28;20228;-66
2023/06/12 19:27:01;;;;;;;5.30;3.90;;;;;;;26.82;29.12;99444.16;10353269;28;20235;-67
2023/06/12 19:32:03;;;;;;;5.45;4.28;;;;;;;26.58;29.26;99447.81;10373486;28;21007;-67
2023/06/12 19:37:05;;;;;;;6.82;4.18;;;;;;;26.05;29.54;99470.06;10371677;28;20609;-66
2023/06/12 19:42:09;;;;;;;6.97;3.78;;;;;;;27.10;28.79;99441.44;10365435;28;20257;-66
2023/06/12 19:47:11;;;;;;;10.02;3.83;;;;;;;26.69;29.19;99459.47;10376180;28;20265;-66
2023/06/12 19:52:13;;;;;;;4.90;4.20;;;;;;;26.76;29.08;99459.09;10381210;28;20760;-66
2023/06/12 19:57:15;;;;;;;6.63;4.22;;;;;;;26.50;29.43;99470.50;10374991;28;20261;-65
2023/06/12 20:02:17;;;;;;;6.00;4.20;;;;;;;25.16;30.22;99476.84;10370859;28;20777;-67
2023/06/12 20:07:19;;;;;;;5.93;4.05;;;;;;;24.45;30.65;99492.78;10377650;28;20256;-66
2023/06/12 20:12:21;;;;;;;4.30;3.70;;;;;;;25.36;29.77;99480.50;10374708;28;20209;-66
2023/06/12 20:17:23;;;;;;;4.90;3.90;;;;;;;26.74;28.91;99469.56;10371964;28;20256;-67
2023/06/12 20:22:24;;;;;;;4.45;3.70;;;;;;;25.44;29.82;99496.31;10370736;28;20268;-67
2023/06/12 20:27:26;;;;;;;7.57;3.75;;;;;;;24.86;30.46;99476.03;10350058;28;20222;-66
2023/06/12 20:32:29;;;;;;;4.40;3.88;;;;;;;25.07;30.41;99460.25;10359059;28;20194;-67
2023/06/12 20:37:31;;;;;;;6.93;4.10;;;;;;;24.94;30.11;99477.34;10361753;28;20956;-66
2023/06/12 20:42:35;;;;;;;8.50;4.32;;;;;;;24.22;30.59;99482.56;10357286;28;20288;-66
2023/06/12 20:47:37;;;;;;;4.72;4.10;;;;;;;23.95;30.52;99486.50;10361276;28;20237;-67
2023/06/12 20:52:39;;;;;;;7.88;4.25;;;;;;;24.77;30.15;99471.50;10359403;28;20216;-67
2023/06/12 20:57:41;;;;;;;6.70;4.32;;;;;;;24.13;30.74;99474.94;10368844;28;20895;-67
2023/06/12 21:02:42;;;;;;;5.60;3.83;;;;;;;23.94;30.99;99461.09;10370288;28;20359;-67
2023/06/12 21:07:44;;;;;;;7.45;4.07;;;;;;;24.30;30.54;99451.88;10354212;28;20233;-67
2023/06/12 21:12:46;;;;;;;4.97;3.85;;;;;;;23.22;31.74;99450.47;10358144;28;20214;-67
2023/06/12 21:17:48;;;;;;;5.63;3.65;;;;;;;22.88;31.94;99464.69;10361365;28;20797;-67
2023/06/12 21:22:51;;;;;;;5.47;4.03;;;;;;;23.89;31.00;99457.59;10349727;28;20335;-67
2023/06/12 21:27:53;;;;;;;5.47;4.10;;;;;;;23.50;31.77;99450.94;10364162;28;20229;-66
2023/06/12 21:32:55;;;;;;;5.32;4.13;;;;;;;22.12;32.50;99460.03;10357507;28;20298;-67
2023/06/12 21:37:57;;;;;;;5.50;3.78;;;;;;;24.36;30.84;99461.69;10363936;28;20302;-66
2023/06/12 21:42:58;;;;;;;6.28;3.90;;;;;;;23.85;31.02;99451.06;10358716;28;20262;-66
2023/06/12 21:48:02;;;;;;;5.20;4.25;;;;;;;23.75;31.64;99457.38;10353035;28;20226;-67
2023/06/12 21:53:04;;;;;;;5.05;3.75;;;;;;;24.28;31.00;99465.84;10367510;28;20213;-66
2023/06/12 21:58:06;;;;;;;6.40;4.50;;;;;;;23.97;31.17;99478.84;10359439;28;20287;-68
2023/06/12 22:03:07;;;;;;;4.93;3.30;;;;;;;24.18;31.28;99477.66;10358642;28;20241;-64
2023/06/12 22:08:09;;;;;;;6.72;4.20;;;;;;;24.19;31.39;99475.72;10353603;28;20225;-65
2023/06/12 22:13:11;;;;;;;5.50;4.05;;;;;;;23.40;31.95;99491.91;10354654;28;20871;-67
2023/06/12 22:18:13;;;;;;;8.07;4.25;;;;;;;24.26;31.63;99473.50;10350920;28;20236;-65
2023/06/12 22:23:15;;;;;;;5.53;4.30;;;;;;;23.16;31.95;99465.22;10358958;28;20340;-67
2023/06/12 22:28:18;;;;;;;6.65;4.03;;;;;;;22.08;33.66;99445.28;10369761;28;20230;-67
2023/06/12 22:33:19;;;;;;;5.38;4.00;;;;;;;21.22;34.50;99455.53;10358565;28;20214;-65
2023/06/12 22:38:22;;;;;;;4.53;4.05;;;;;;;21.19;33.91;99450.63;10357853;28;20815;-68
2023/06/12 22:43:24;;;;;;;5.38;4.35;;;;;;;22.24;32.75;99457.03;10352193;28;20315;-67
2023/06/12 22:48:33;;;;;;;4.85;4.18;;;;;;;21.86;33.58;99449.00;10350969;28;20224;-67
2023/06/12 22:53:36;;;;;;;5.75;4.30;;;;;;;21.08;34.30;99448.94;10366419;28;20200;-68
2023/06/12 22:58:38;;;;;;;6.20;4.50;;;;;;;21.56;33.96;99447.84;10358625;28;20739;-67
2023/06/12 23:03:40;;;;;;;7.10;4.60;;;;;;;21.10;34.39;99450.28;10358738;28;20244;-68
2023/06/12 23:08:43;;;;;;;4.97;4.47;;;;;;;20.97;34.50;99451.59;10353145;28;20894;-66
2023/06/12 23:13:45;;;;;;;7.65;4.65;;;;;;;20.77;34.37;99452.25;10353460;28;20267;-68
2023/06/12 23:18:48;;;;;;;5.20;4.60;;;;;;;21.14;34.58;99443.25;10359298;28;20296;-68
2023/06/12 23:23:51;;;;;;;6.72;4.40;;;;;;;20.26;35.10;99428.19;10361238;28;20261;-67
2023/06/12 23:28:54;;;;;;;5.32;4.28;;;;;;;20.41;34.43;99453.84;10367671;28;20208;-66
2023/06/12 23:33:56;;;;;;;6.80;4.68;;;;;;;20.44;34.41;99465.00;10370357;28;20263;-68